Time;durP1;ratioP1;P1;durP2;ratioP2;P2;SDS_P1;SDS_P2;PMS_P1;PMS_P2;Temp;Humidity;BMP_temperature;BMP_pressure;BME280_temperature;BME280_humidity;BME280_pressure;Samples;Min_cycle;Max_cycle;Signal;HPM_P1;HPM_P2
2024/02/05 00:02:17;;;;;;;1.60;1.33;;;;;;;;;;4964751;28;20042;-65
2024/02/05 00:04:44;;;;;;;2.80;1.30;;;;;;;;;;4969437;28;20035;-64
2024/02/05 00:07:11;;;;;;;1.67;1.23;;;;;;;;;;4963996;28;20398;-64
2024/02/05 00:09:37;;;;;;;1.60;1.33;;;;;;;;;;4962582;28;20038;-65
2024/02/05 00:12:04;;;;;;;2.85;1.30;;;;;;;;;;4960975;28;20865;-65
2024/02/05 00:14:30;;;;;;;2.95;1.20;;;;;;;;;;4966735;28;20387;-65
2024/02/05 00:16:56;;;;;;;3.25;1.27;;;;;;;;;;4969525;28;20053;-66
2024/02/05 00:19:22;;;;;;;2.15;1.50;;;;;;;;;;4970485;28;20037;-66
2024/02/05 00:21:48;;;;;;;1.58;1.33;;;;;;;;;;4969673;28;20035;-65
2024/02/05 00:24:14;;;;;;;1.73;1.30;;;;;;;;;;4969751;28;20026;-65
2024/02/05 00:26:41;;;;;;;1.90;1.30;;;;;;;;;;4971113;28;20031;-66
2024/02/05 00:29:08;;;;;;;1.63;1.10;;;;;;;;;;4969588;28;20043;-65
2024/02/05 00:31:37;;;;;;;2.40;1.50;;;;;;;;;;4969698;28;20047;-65
2024/02/05 00:34:03;;;;;;;3.67;1.30;;;;;;;;;;4970485;28;20401;-66
2024/02/05 00:36:29;;;;;;;1.80;1.48;;;;;;;;;;4969047;28;20556;-66
2024/02/05 00:38:55;;;;;;;4.65;1.25;;;;;;;;;;4967990;28;20382;-65
2024/02/05 00:41:21;;;;;;;2.97;1.42;;;;;;;;;;4968980;28;20378;-66
2024/02/05 00:43:48;;;;;;;2.85;1.30;;;;;;;;;;4968904;28;20031;-66
2024/02/05 00:46:26;;;;;;;2.53;1.30;;;;;;;;;;4968442;28;20137;-65
2024/02/05 00:48:56;;;;;;;2.47;1.48;;;;;;;;;;4966978;28;20030;-66
2024/02/05 00:51:23;;;;;;;2.08;1.60;;;;;;;;;;4967358;28;20058;-65
2024/02/05 00:53:49;;;;;;;1.70;1.40;;;;;;;;;;4967268;28;20038;-65
2024/02/05 00:56:15;;;;;;;1.60;1.42;;;;;;;;;;4967370;28;20035;-66
2024/02/05 00:58:42;;;;;;;2.25;1.42;;;;;;;;;;4966535;28;20050;-65
2024/02/05 01:01:08;;;;;;;2.95;1.65;;;;;;;;;;4965598;28;20066;-65
2024/02/05 01:03:34;;;;;;;2.22;1.40;;;;;;;;;;4965859;28;20035;-64
2024/02/05 01:06:01;;;;;;;2.80;1.52;;;;;;;;;;4964525;28;20043;-65
2024/02/05 01:08:27;;;;;;;2.75;1.92;;;;;;;;;;4969316;28;20058;-65
2024/02/05 01:10:53;;;;;;;3.05;1.75;;;;;;;;;;4970420;28;20047;-64
2024/02/05 01:13:19;;;;;;;2.22;1.42;;;;;;;;;;4970880;28;20041;-65
2024/02/05 01:15:46;;;;;;;2.58;1.85;;;;;;;;;;4969270;28;20031;-64
2024/02/05 01:18:12;;;;;;;3.45;1.92;;;;;;;;;;4984923;28;20053;-64
2024/02/05 01:20:38;;;;;;;2.55;1.77;;;;;;;;;;4971695;28;20043;-65
2024/02/05 01:23:04;;;;;;;4.28;1.85;;;;;;;;;;4971049;28;20047;-66
2024/02/05 01:25:30;;;;;;;4.28;1.98;;;;;;;;;;4973421;28;20046;-65
2024/02/05 01:27:56;;;;;;;2.45;1.58;;;;;;;;;;4973039;28;20114;-65
2024/02/05 01:30:22;;;;;;;4.07;1.83;;;;;;;;;;4973996;28;20058;-65
2024/02/05 01:32:48;;;;;;;2.97;1.88;;;;;;;;;;4972025;28;20047;-65
2024/02/05 01:35:14;;;;;;;2.58;1.55;;;;;;;;;;4973158;28;20039;-65
2024/02/05 01:37:40;;;;;;;3.50;1.90;;;;;;;;;;4956851;28;20049;-65
2024/02/05 01:40:09;;;;;;;5.63;2.83;;;;;;;;;;4972375;28;20509;-66
2024/02/05 01:42:39;;;;;;;4.43;1.90;;;;;;;;;;4970437;28;20038;-66
2024/02/05 01:45:07;;;;;;;2.53;1.73;;;;;;;;;;4967683;28;20039;-66
2024/02/05 01:47:37;;;;;;;4.93;2.30;;;;;;;;;;4969845;28;20046;-65
2024/02/05 01:50:07;;;;;;;4.28;2.15;;;;;;;;;;4966464;28;20054;-65
2024/02/05 01:52:41;;;;;;;2.78;2.05;;;;;;;;;;4972498;28;20034;-65
2024/02/05 01:55:10;;;;;;;2.80;1.90;;;;;;;;;;4966021;28;20042;-65
2024/02/05 01:57:36;;;;;;;4.13;2.30;;;;;;;;;;4936099;28;20038;-65
2024/02/05 02:00:04;;;;;;;3.45;2.20;;;;;;;;;;4972120;28;20038;-65
2024/02/05 02:02:39;;;;;;;3.08;1.98;;;;;;;;;;4973563;28;20495;-65
2024/02/05 02:05:06;;;;;;;4.20;2.00;;;;;;;;;;4971971;28;20370;-65
2024/02/05 02:07:32;;;;;;;4.10;2.15;;;;;;;;;;4969164;28;20043;-65
2024/02/05 02:10:00;;;;;;;13.30;2.58;;;;;;;;;;4972535;28;20046;-65
2024/02/05 02:12:26;;;;;;;3.70;2.35;;;;;;;;;;4973027;28;20037;-65
2024/02/05 02:14:52;;;;;;;4.20;2.53;;;;;;;;;;4973315;28;20046;-66
2024/02/05 02:17:22;;;;;;;3.92;2.38;;;;;;;;;;4973690;28;20034;-65
2024/02/05 02:19:51;;;;;;;3.92;2.22;;;;;;;;;;4973775;28;20030;-65
2024/02/05 02:22:23;;;;;;;4.28;2.63;;;;;;;;;;4966325;28;20035;-65
2024/02/05 02:24:50;;;;;;;4.70;2.25;;;;;;;;;;4971793;28;20043;-61
2024/02/05 02:27:16;;;;;;;3.58;2.10;;;;;;;;;;4973129;28;20030;-65
2024/02/05 02:29:43;;;;;;;4.60;2.20;;;;;;;;;;4967898;28;20419;-66
2024/02/05 02:32:24;;;;;;;4.00;2.33;;;;;;;;;;4970384;28;20395;-65
2024/02/05 02:34:54;;;;;;;3.65;2.25;;;;;;;;;;4967889;28;20054;-63
2024/02/05 02:37:22;;;;;;;3.15;1.98;;;;;;;;;;4971232;28;20406;-66
2024/02/05 02:39:58;;;;;;;3.58;2.20;;;;;;;;;;4970758;28;20038;-66
2024/02/05 02:42:25;;;;;;;3.80;1.92;;;;;;;;;;4967968;28;20047;-65
2024/02/05 02:44:54;;;;;;;4.50;2.25;;;;;;;;;;4970447;28;20054;-65
2024/02/05 02:47:20;;;;;;;3.08;2.00;;;;;;;;;;4967844;28;20043;-65
2024/02/05 02:49:48;;;;;;;3.63;1.98;;;;;;;;;;4971895;28;20030;-66
2024/02/05 02:52:14;;;;;;;4.22;2.22;;;;;;;;;;4966951;28;20046;-65
2024/02/05 02:54:40;;;;;;;5.22;2.20;;;;;;;;;;4967619;28;20405;-66
2024/02/05 02:57:06;;;;;;;4.72;2.00;;;;;;;;;;4969390;28;20057;-64
2024/02/05 02:59:32;;;;;;;3.75;2.35;;;;;;;;;;4955126;28;20039;-65
2024/02/05 03:01:58;;;;;;;3.13;1.80;;;;;;;;;;4965205;28;20039;-66
2024/02/05 03:04:24;;;;;;;7.00;1.98;;;;;;;;;;4973214;28;20058;-64
2024/02/05 03:06:52;;;;;;;4.32;1.85;;;;;;;;;;4970167;28;20089;-64
2024/02/05 03:09:18;;;;;;;6.10;2.60;;;;;;;;;;4973069;28;20034;-66
2024/02/05 03:11:44;;;;;;;4.18;1.73;;;;;;;;;;4970874;28;20049;-66
2024/02/05 03:14:10;;;;;;;6.75;2.45;;;;;;;;;;4968301;28;20051;-65
2024/02/05 03:16:36;;;;;;;6.85;2.53;;;;;;;;;;4972551;28;20418;-64
2024/02/05 03:19:02;;;;;;;3.83;2.00;;;;;;;;;;4969013;28;20049;-64
2024/02/05 03:21:29;;;;;;;4.68;1.80;;;;;;;;;;4969198;28;20038;-64
2024/02/05 03:23:55;;;;;;;5.60;2.15;;;;;;;;;;4967758;28;20406;-62
2024/02/05 03:26:21;;;;;;;4.43;2.10;;;;;;;;;;4971266;28;20374;-63
2024/02/05 03:28:47;;;;;;;4.45;2.20;;;;;;;;;;4970683;28;20038;-65
2024/02/05 03:31:14;;;;;;;4.00;2.05;;;;;;;;;;4970320;28;20023;-65
2024/02/05 03:33:40;;;;;;;6.00;2.30;;;;;;;;;;4970086;28;20035;-65
2024/02/05 03:36:06;;;;;;;6.28;2.33;;;;;;;;;;4967738;28;20031;-65
2024/02/05 03:38:32;;;;;;;4.20;2.38;;;;;;;;;;4968774;28;20043;-65
2024/02/05 03:40:58;;;;;;;3.75;2.05;;;;;;;;;;4966782;28;20034;-65
2024/02/05 03:43:24;;;;;;;5.65;2.03;;;;;;;;;;4964744;28;20050;-65
2024/02/05 03:45:50;;;;;;;4.82;2.63;;;;;;;;;;4971020;28;20509;-64
2024/02/05 03:48:19;;;;;;;6.85;3.38;;;;;;;;;;4966069;28;20054;-65
2024/02/05 03:50:45;;;;;;;3.93;2.23;;;;;;;;;;4967860;28;20026;-64
2024/02/05 03:53:12;;;;;;;3.60;1.95;;;;;;;;;;4967996;28;20042;-65
2024/02/05 03:55:38;;;;;;;7.40;2.25;;;;;;;;;;4966046;28;20662;-64
2024/02/05 03:58:05;;;;;;;7.10;2.40;;;;;;;;;;4970218;28;20099;-63
2024/02/05 04:00:31;;;;;;;5.88;2.55;;;;;;;;;;4950452;28;20031;-64
2024/02/05 04:02:58;;;;;;;6.70;2.88;;;;;;;;;;4969957;28;20054;-65
2024/02/05 04:05:28;;;;;;;5.82;2.38;;;;;;;;;;4966960;28;20529;-65
2024/02/05 04:07:54;;;;;;;4.93;2.17;;;;;;;;;;4970292;28;20506;-65
2024/02/05 04:10:21;;;;;;;5.72;2.67;;;;;;;;;;4969708;28;20402;-64
2024/02/05 04:12:47;;;;;;;4.47;2.30;;;;;;;;;;4970219;28;20050;-64
2024/02/05 04:15:13;;;;;;;7.35;2.75;;;;;;;;;;4967656;28;20046;-65
2024/02/05 04:17:39;;;;;;;6.13;2.70;;;;;;;;;;4966020;28;20039;-65
2024/02/05 04:20:05;;;;;;;6.15;3.28;;;;;;;;;;4968191;28;20030;-64
2024/02/05 04:22:32;;;;;;;10.98;5.00;;;;;;;;;;4967462;28;20066;-64
2024/02/05 04:24:58;;;;;;;5.45;2.75;;;;;;;;;;4970116;28;20383;-64
2024/02/05 04:27:25;;;;;;;8.20;3.38;;;;;;;;;;4968202;28;20034;-64
2024/02/05 04:29:52;;;;;;;8.30;3.45;;;;;;;;;;4970206;28;20027;-64
2024/02/05 04:32:18;;;;;;;4.70;2.55;;;;;;;;;;4966872;28;20041;-64
2024/02/05 04:34:44;;;;;;;12.20;3.40;;;;;;;;;;4966095;28;20062;-65
2024/02/05 04:37:10;;;;;;;8.88;2.67;;;;;;;;;;4969135;28;20042;-65
2024/02/05 04:39:36;;;;;;;7.85;2.35;;;;;;;;;;4968043;28;20454;-65
2024/02/05 04:42:03;;;;;;;9.07;3.00;;;;;;;;;;4967839;28;20038;-65
2024/02/05 04:44:29;;;;;;;7.70;2.58;;;;;;;;;;4963917;28;20049;-64
2024/02/05 04:46:55;;;;;;;11.57;3.25;;;;;;;;;;4966181;28;20042;-64
2024/02/05 04:49:21;;;;;;;6.25;2.40;;;;;;;;;;4970290;28;20038;-64
2024/02/05 04:51:49;;;;;;;5.70;2.63;;;;;;;;;;4970604;28;20049;-64
2024/02/05 04:54:15;;;;;;;7.65;2.35;;;;;;;;;;4965440;28;20058;-64
2024/02/05 04:56:41;;;;;;;5.57;2.20;;;;;;;;;;4969170;28;20494;-64
2024/02/05 04:59:08;;;;;;;6.18;2.50;;;;;;;;;;4975608;28;20406;-65
2024/02/05 05:01:34;;;;;;;6.40;2.60;;;;;;;;;;4971953;28;20498;-64
2024/02/05 05:04:00;;;;;;;5.35;2.10;;;;;;;;;;4970487;28;20458;-65
2024/02/05 05:06:26;;;;;;;6.55;2.08;;;;;;;;;;4973339;28;20046;-65
2024/02/05 05:08:52;;;;;;;3.92;1.98;;;;;;;;;;4976699;28;20047;-64
2024/02/05 05:11:22;;;;;;;5.82;1.90;;;;;;;;;;4977075;28;20057;-64
2024/02/05 05:13:49;;;;;;;4.72;2.33;;;;;;;;;;4970262;28;20039;-65
2024/02/05 05:16:17;;;;;;;6.13;1.98;;;;;;;;;;4970661;28;20050;-64
2024/02/05 05:18:43;;;;;;;5.03;2.25;;;;;;;;;;4976527;28;20055;-64
2024/02/05 05:21:10;;;;;;;6.35;2.00;;;;;;;;;;4973566;28;20061;-66
2024/02/05 05:23:36;;;;;;;5.50;2.00;;;;;;;;;;4974539;28;20050;-65
2024/02/05 05:26:02;;;;;;;6.03;2.40;;;;;;;;;;4974310;28;20039;-65
2024/02/05 05:28:30;;;;;;;3.95;1.88;;;;;;;;;;4976389;28;20058;-66
2024/02/05 05:30:56;;;;;;;6.88;2.05;;;;;;;;;;4973735;28;20116;-65
2024/02/05 05:33:23;;;;;;;5.65;2.30;;;;;;;;;;4973570;28;20047;-65
2024/02/05 05:35:49;;;;;;;3.38;1.60;;;;;;;;;;4973469;28;20506;-65
2024/02/05 05:38:15;;;;;;;14.68;4.53;;;;;;;;;;4976595;28;20046;-65
2024/02/05 05:40:41;;;;;;;6.65;2.53;;;;;;;;;;4974906;28;20146;-67
2024/02/05 05:43:07;;;;;;;4.78;2.10;;;;;;;;;;4974876;28;20500;-65
2024/02/05 05:45:34;;;;;;;4.50;2.20;;;;;;;;;;4969854;28;20046;-66
2024/02/05 05:48:01;;;;;;;4.03;1.88;;;;;;;;;;4971911;28;20050;-65
2024/02/05 05:50:27;;;;;;;5.47;2.20;;;;;;;;;;4973251;28;20042;-66
2024/02/05 05:52:54;;;;;;;3.55;2.00;;;;;;;;;;4974172;28;20450;-66
2024/02/05 05:55:20;;;;;;;8.85;2.45;;;;;;;;;;4975760;28;20047;-65
2024/02/05 05:57:46;;;;;;;3.20;1.83;;;;;;;;;;4971021;28;20490;-65
2024/02/05 06:00:13;;;;;;;5.68;2.28;;;;;;;;;;4975968;28;20367;-65
2024/02/05 06:02:40;;;;;;;4.05;2.13;;;;;;;;;;4970573;28;20039;-66
2024/02/05 06:05:07;;;;;;;5.57;2.40;;;;;;;;;;4974516;28;20514;-66
2024/02/05 06:07:34;;;;;;;3.85;2.00;;;;;;;;;;4972686;28;20050;-63
2024/02/05 06:10:00;;;;;;;5.10;2.00;;;;;;;;;;4972350;28;20058;-65
2024/02/05 06:12:26;;;;;;;4.70;2.63;;;;;;;;;;4973327;28;20058;-64
2024/02/05 06:14:52;;;;;;;4.70;2.20;;;;;;;;;;4971754;28;20038;-63
2024/02/05 06:17:18;;;;;;;5.80;1.90;;;;;;;;;;4973513;28;20041;-64
2024/02/05 06:19:45;;;;;;;4.40;2.00;;;;;;;;;;4971517;28;20418;-63
2024/02/05 06:22:12;;;;;;;6.10;2.08;;;;;;;;;;4972807;28;20402;-64
2024/02/05 06:24:38;;;;;;;7.85;2.13;;;;;;;;;;4972844;28;20050;-67
2024/02/05 06:27:07;;;;;;;5.35;2.30;;;;;;;;;;4973003;28;20046;-63
2024/02/05 06:29:34;;;;;;;8.82;2.13;;;;;;;;;;4973535;28;20478;-63
2024/02/05 06:32:00;;;;;;;6.13;2.22;;;;;;;;;;4967270;28;20042;-63
2024/02/05 06:34:26;;;;;;;3.20;1.83;;;;;;;;;;4965602;28;20506;-63
2024/02/05 06:36:52;;;;;;;6.13;2.45;;;;;;;;;;4971462;28;20053;-63
2024/02/05 06:39:18;;;;;;;4.22;2.22;;;;;;;;;;4972799;28;20062;-63
2024/02/05 06:41:45;;;;;;;5.07;2.30;;;;;;;;;;4969203;28;20039;-65
2024/02/05 06:44:11;;;;;;;7.05;2.55;;;;;;;;;;4967548;28;20035;-64
2024/02/05 06:46:37;;;;;;;5.82;2.38;;;;;;;;;;4983952;28;20042;-62
2024/02/05 06:49:03;;;;;;;2.97;1.77;;;;;;;;;;4969641;28;20051;-67
2024/02/05 06:51:29;;;;;;;4.57;2.10;;;;;;;;;;4971361;28;20057;-64
2024/02/05 06:53:55;;;;;;;4.35;2.20;;;;;;;;;;4965428;28;20043;-66
2024/02/05 06:56:21;;;;;;;6.53;2.40;;;;;;;;;;4971494;28;20545;-64
2024/02/05 06:58:47;;;;;;;3.92;1.80;;;;;;;;;;4978900;28;20073;-63
2024/02/05 07:01:14;;;;;;;4.07;1.80;;;;;;;;;;4966513;28;20035;-64
2024/02/05 07:03:40;;;;;;;4.38;2.17;;;;;;;;;;4954120;28;20050;-64
2024/02/05 07:06:06;;;;;;;3.75;1.70;;;;;;;;;;4953384;28;20051;-63
2024/02/05 07:08:32;;;;;;;3.45;1.77;;;;;;;;;;4969473;28;20498;-63
2024/02/05 07:10:58;;;;;;;4.82;1.50;;;;;;;;;;4968222;28;20065;-64
2024/02/05 07:13:24;;;;;;;4.53;1.98;;;;;;;;;;4968925;28;20070;-64
2024/02/05 07:15:50;;;;;;;3.95;2.03;;;;;;;;;;4966696;28;20042;-65
2024/02/05 07:18:17;;;;;;;5.90;1.90;;;;;;;;;;4946270;28;20049;-63
2024/02/05 07:20:43;;;;;;;4.18;1.90;;;;;;;;;;4968990;28;20047;-64
2024/02/05 07:23:09;;;;;;;5.07;1.90;;;;;;;;;;4969133;28;20047;-65
2024/02/05 07:25:39;;;;;;;6.03;2.03;;;;;;;;;;4954029;28;20042;-65
2024/02/05 07:28:06;;;;;;;2.80;1.52;;;;;;;;;;4970091;28;20490;-64
2024/02/05 07:30:32;;;;;;;2.80;1.55;;;;;;;;;;4971286;28;20050;-64
2024/02/05 07:32:58;;;;;;;5.43;1.88;;;;;;;;;;4968327;28;20034;-64
2024/02/05 07:35:24;;;;;;;5.03;2.00;;;;;;;;;;4962841;28;20050;-64
2024/02/05 07:37:50;;;;;;;4.88;2.55;;;;;;;;;;4965422;28;20078;-65
2024/02/05 07:40:17;;;;;;;11.10;2.05;;;;;;;;;;4968062;28;20042;-64
2024/02/05 07:42:43;;;;;;;3.25;1.83;;;;;;;;;;4967293;28;20042;-65
2024/02/05 07:45:09;;;;;;;4.22;2.30;;;;;;;;;;4966361;28;20058;-65
2024/02/05 07:47:35;;;;;;;5.55;2.72;;;;;;;;;;4961515;28;20054;-64
2024/02/05 07:50:03;;;;;;;5.63;2.90;;;;;;;;;;4969282;28;20038;-65
2024/02/05 07:52:29;;;;;;;4.78;1.77;;;;;;;;;;4953201;28;20043;-64
2024/02/05 07:54:55;;;;;;;9.90;1.77;;;;;;;;;;4951657;28;20050;-63
2024/02/05 07:57:21;;;;;;;4.45;1.52;;;;;;;;;;4963355;28;20051;-65
2024/02/05 07:59:48;;;;;;;4.30;1.70;;;;;;;;;;4980687;28;20043;-64
2024/02/05 08:02:14;;;;;;;4.18;1.70;;;;;;;;;;4936633;28;20034;-64
2024/02/05 08:04:40;;;;;;;3.58;1.52;;;;;;;;;;4971511;28;20066;-64
2024/02/05 08:07:07;;;;;;;3.08;1.67;;;;;;;;;;4967796;28;20046;-64
2024/02/05 08:09:34;;;;;;;4.90;1.98;;;;;;;;;;4968963;28;20031;-65
2024/02/05 08:12:00;;;;;;;5.03;1.90;;;;;;;;;;4948966;28;20054;-61
2024/02/05 08:14:26;;;;;;;7.65;2.90;;;;;;;;;;4951247;28;20073;-64
2024/02/05 08:16:52;;;;;;;4.15;2.10;;;;;;;;;;4962611;28;20063;-64
2024/02/05 08:19:18;;;;;;;2.95;1.70;;;;;;;;;;4969932;28;20046;-64
2024/02/05 08:21:44;;;;;;;7.65;3.38;;;;;;;;;;4968826;28;20042;-65
2024/02/05 08:24:10;;;;;;;6.97;2.67;;;;;;;;;;4966035;28;20047;-64
2024/02/05 08:26:37;;;;;;;8.13;2.08;;;;;;;;;;4967862;28;20513;-63
2024/02/05 08:29:03;;;;;;;2.50;1.48;;;;;;;;;;4969290;28;20490;-64
2024/02/05 08:31:29;;;;;;;4.88;2.28;;;;;;;;;;4966194;28;20053;-65
2024/02/05 08:33:55;;;;;;;5.55;1.80;;;;;;;;;;4966921;28;20054;-66
2024/02/05 08:36:21;;;;;;;3.92;1.55;;;;;;;;;;4969070;28;20065;-64
2024/02/05 08:38:47;;;;;;;4.18;2.10;;;;;;;;;;4966483;28;20043;-64
2024/02/05 08:41:14;;;;;;;5.70;2.60;;;;;;;;;;4965207;28;20042;-64
2024/02/05 08:43:40;;;;;;;4.40;2.35;;;;;;;;;;4965900;28;20046;-65
2024/02/05 08:46:07;;;;;;;6.95;2.20;;;;;;;;;;4964188;28;20042;-63
2024/02/05 08:48:36;;;;;;;5.38;2.22;;;;;;;;;;4945204;28;20034;-64
2024/02/05 08:51:02;;;;;;;5.95;1.70;;;;;;;;;;4964875;28;20061;-64
2024/02/05 08:53:28;;;;;;;3.08;1.58;;;;;;;;;;4948766;28;20371;-65
2024/02/05 08:55:54;;;;;;;3.38;1.52;;;;;;;;;;4952470;28;20057;-64
2024/02/05 08:58:20;;;;;;;2.05;1.42;;;;;;;;;;4963658;28;20038;-64
2024/02/05 09:00:48;;;;;;;7.60;1.45;;;;;;;;;;4969061;28;20057;-64
2024/02/05 09:03:16;;;;;;;6.20;1.55;;;;;;;;;;4968434;28;20513;-64
2024/02/05 09:05:43;;;;;;;3.80;1.50;;;;;;;;;;4968335;28;20046;-63
2024/02/05 09:08:09;;;;;;;3.33;1.45;;;;;;;;;;4969652;28;20054;-65
2024/02/05 09:10:39;;;;;;;5.90;1.73;;;;;;;;;;4967340;28;20055;-64
2024/02/05 09:13:05;;;;;;;3.65;1.63;;;;;;;;;;4968167;28;20053;-64
2024/02/05 09:15:33;;;;;;;4.15;1.67;;;;;;;;;;4966549;28;20027;-64
2024/02/05 09:18:00;;;;;;;2.83;1.50;;;;;;;;;;4966435;28;20038;-63
2024/02/05 09:20:26;;;;;;;6.15;1.50;;;;;;;;;;4948984;28;20058;-64
2024/02/05 09:22:53;;;;;;;3.85;1.67;;;;;;;;;;4966326;28;20031;-63
2024/02/05 09:25:20;;;;;;;3.63;1.70;;;;;;;;;;4967246;28;20042;-64
2024/02/05 09:27:46;;;;;;;8.82;2.10;;;;;;;;;;4965641;28;20035;-64
2024/02/05 09:30:12;;;;;;;6.93;2.00;;;;;;;;;;4966817;28;20526;-64
2024/02/05 09:32:38;;;;;;;5.07;1.88;;;;;;;;;;4966421;28;20066;-63
2024/02/05 09:35:05;;;;;;;4.88;2.03;;;;;;;;;;4967709;28;20502;-65
2024/02/05 09:37:31;;;;;;;5.10;1.70;;;;;;;;;;4965279;28;20424;-64
2024/02/05 09:39:57;;;;;;;3.33;1.52;;;;;;;;;;4964969;28;20043;-65
2024/02/05 09:42:24;;;;;;;3.30;1.27;;;;;;;;;;4968044;28;20473;-65
2024/02/05 09:44:50;;;;;;;2.65;1.60;;;;;;;;;;4970675;28;20041;-65
2024/02/05 09:47:20;;;;;;;4.85;1.50;;;;;;;;;;4966816;28;20046;-64
2024/02/05 09:49:49;;;;;;;;;;;;;;;;;;4967612;28;20479;-64
2024/02/05 09:52:16;;;;;;;3.77;1.63;;;;;;;;;;4967062;28;19920;-65
2024/02/05 09:54:43;;;;;;;3.92;1.25;;;;;;;;;;4970947;28;20525;-64
2024/02/05 09:57:10;;;;;;;3.90;1.55;;;;;;;;;;4968724;28;20047;-64
2024/02/05 09:59:40;;;;;;;2.85;1.27;;;;;;;;;;4972387;28;20037;-64
2024/02/05 10:02:07;;;;;;;6.80;1.65;;;;;;;;;;4973211;28;20034;-65
2024/02/05 10:04:40;;;;;;;2.95;1.35;;;;;;;;;;4971672;28;20031;-64
2024/02/05 10:07:12;;;;;;;4.93;1.20;;;;;;;;;;4968713;28;20141;-64
2024/02/05 10:09:40;;;;;;;4.53;2.20;;;;;;;;;;4970572;28;20387;-65
2024/02/05 10:12:09;;;;;;;4.05;1.95;;;;;;;;;;4971389;28;20062;-64
2024/02/05 10:14:37;;;;;;;4.10;1.60;;;;;;;;;;4970860;28;20057;-64
2024/02/05 10:17:03;;;;;;;5.72;1.33;;;;;;;;;;4966760;28;20410;-64
2024/02/05 10:19:30;;;;;;;2.47;1.55;;;;;;;;;;4972079;28;20047;-63
2024/02/05 10:21:57;;;;;;;4.60;1.77;;;;;;;;;;4972508;28;20050;-64
2024/02/05 10:24:24;;;;;;;3.92;1.30;;;;;;;;;;4970710;28;20027;-65
2024/02/05 10:26:50;;;;;;;3.28;1.42;;;;;;;;;;4969807;28;20039;-64
2024/02/05 10:29:17;;;;;;;3.25;1.75;;;;;;;;;;4970084;28;20115;-65
2024/02/05 10:31:49;;;;;;;3.15;1.30;;;;;;;;;;4952605;28;20035;-65
2024/02/05 10:34:16;;;;;;;2.17;1.40;;;;;;;;;;4971822;28;20035;-64
2024/02/05 10:36:43;;;;;;;5.13;1.65;;;;;;;;;;4981323;28;20047;-65
2024/02/05 10:39:09;;;;;;;4.22;1.63;;;;;;;;;;4967824;28;20603;-64
2024/02/05 10:41:38;;;;;;;1.75;1.13;;;;;;;;;;4970437;28;20060;-64
2024/02/05 10:44:05;;;;;;;2.20;0.95;;;;;;;;;;4965783;28;20493;-65
2024/02/05 10:46:32;;;;;;;5.30;1.45;;;;;;;;;;4955085;28;20053;-64
2024/02/05 10:49:01;;;;;;;4.32;1.10;;;;;;;;;;4971415;28;20406;-66
2024/02/05 10:51:28;;;;;;;7.87;1.73;;;;;;;;;;4969639;28;20402;-65
2024/02/05 10:53:54;;;;;;;3.10;1.30;;;;;;;;;;4968621;28;20298;-65
2024/02/05 10:56:21;;;;;;;3.58;1.20;;;;;;;;;;4968571;28;20054;-64
2024/02/05 10:58:48;;;;;;;1.40;0.88;;;;;;;;;;4970999;28;21517;-65
2024/02/05 11:01:18;;;;;;;2.33;1.10;;;;;;;;;;4971051;28;20533;-65
2024/02/05 11:03:45;;;;;;;2.58;1.30;;;;;;;;;;4971225;28;20030;-65
2024/02/05 11:06:14;;;;;;;2.55;1.30;;;;;;;;;;4969168;28;20055;-65
2024/02/05 11:08:41;;;;;;;2.47;1.40;;;;;;;;;;4970429;28;20066;-64
2024/02/05 11:11:12;;;;;;;6.32;2.38;;;;;;;;;;4969472;28;20039;-64
2024/02/05 11:13:44;;;;;;;4.38;1.60;;;;;;;;;;4968719;28;20146;-64
2024/02/05 11:16:12;;;;;;;1.75;1.20;;;;;;;;;;4970026;28;20039;-65
2024/02/05 11:18:46;;;;;;;3.05;1.05;;;;;;;;;;4970179;28;20055;-66
2024/02/05 11:21:27;;;;;;;1.60;1.00;;;;;;;;;;4969892;28;20035;-65
2024/02/05 11:23:56;;;;;;;4.35;1.10;;;;;;;;;;4967657;28;20125;-62
2024/02/05 11:26:24;;;;;;;5.40;1.30;;;;;;;;;;4967414;28;20038;-66
2024/02/05 11:28:53;;;;;;;3.15;1.40;;;;;;;;;;4970871;28;20037;-64
2024/02/05 11:31:24;;;;;;;3.75;1.45;;;;;;;;;;4968573;28;20053;-64
2024/02/05 11:34:09;;;;;;;7.63;1.30;;;;;;;;;;4973191;28;20045;-63
2024/02/05 11:36:41;;;;;;;2.80;1.10;;;;;;;;;;4969491;28;20046;-63
2024/02/05 11:39:07;;;;;;;2.90;1.00;;;;;;;;;;4985337;28;20411;-64
2024/02/05 11:41:34;;;;;;;1.58;1.13;;;;;;;;;;4965184;28;20047;-63
2024/02/05 11:44:05;;;;;;;3.13;1.17;;;;;;;;;;4966577;28;20034;-64
2024/02/05 11:46:32;;;;;;;2.72;1.00;;;;;;;;;;4967454;28;20035;-64
2024/02/05 11:48:58;;;;;;;3.30;1.30;;;;;;;;;;4967003;28;20058;-64
2024/02/05 11:51:24;;;;;;;3.65;1.20;;;;;;;;;;4970849;28;20038;-63
2024/02/05 11:53:51;;;;;;;2.40;1.20;;;;;;;;;;4970459;28;20057;-63
2024/02/05 11:56:17;;;;;;;4.47;1.75;;;;;;;;;;4969204;28;20034;-64
2024/02/05 11:58:43;;;;;;;6.05;1.67;;;;;;;;;;4969531;28;20057;-63
2024/02/05 12:01:09;;;;;;;2.10;0.98;;;;;;;;;;4970178;28;20123;-64
2024/02/05 12:03:36;;;;;;;2.30;1.10;;;;;;;;;;4970035;28;20027;-63
2024/02/05 12:06:06;;;;;;;2.03;1.00;;;;;;;;;;4968708;28;20031;-63
2024/02/05 12:08:32;;;;;;;;;;;;;;;;;;4969662;28;20490;-65
2024/02/05 12:10:59;;;;;;;5.82;1.27;;;;;;;;;;4965650;28;19922;-65
2024/02/05 12:13:25;;;;;;;4.88;1.40;;;;;;;;;;4970336;28;20030;-65
2024/02/05 12:15:51;;;;;;;3.53;1.35;;;;;;;;;;4968333;28;20414;-67
2024/02/05 12:18:17;;;;;;;5.47;1.20;;;;;;;;;;4969199;28;20057;-65
2024/02/05 12:20:44;;;;;;;4.00;1.30;;;;;;;;;;4970242;28;20054;-63
2024/02/05 12:23:10;;;;;;;5.60;1.38;;;;;;;;;;4971269;28;20042;-66
2024/02/05 12:25:36;;;;;;;4.60;1.30;;;;;;;;;;4968905;28;20043;-65
2024/02/05 12:28:02;;;;;;;5.25;1.23;;;;;;;;;;4968302;28;20406;-65
2024/02/05 12:30:28;;;;;;;4.00;1.10;;;;;;;;;;4969140;28;20034;-64
2024/02/05 12:32:55;;;;;;;2.67;1.30;;;;;;;;;;4963827;28;20422;-65
2024/02/05 12:35:22;;;;;;;3.65;1.08;;;;;;;;;;4968116;28;20038;-63
2024/02/05 12:37:50;;;;;;;3.28;1.00;;;;;;;;;;4968526;28;20049;-65
2024/02/05 12:40:17;;;;;;;3.53;0.93;;;;;;;;;;4969639;28;20513;-65
2024/02/05 12:42:43;;;;;;;3.33;0.80;;;;;;;;;;4964889;28;20047;-63
2024/02/05 12:45:11;;;;;;;6.15;0.93;;;;;;;;;;4964961;28;20557;-65
2024/02/05 12:47:38;;;;;;;1.80;0.95;;;;;;;;;;4966211;28;20051;-63
2024/02/05 12:50:05;;;;;;;5.03;1.08;;;;;;;;;;4971454;28;20514;-63
2024/02/05 12:52:31;;;;;;;5.05;1.23;;;;;;;;;;4970652;28;20039;-66
2024/02/05 12:54:58;;;;;;;3.67;1.80;;;;;;;;;;4970151;28;20501;-64
2024/02/05 12:57:24;;;;;;;2.67;1.20;;;;;;;;;;4969148;28;20081;-64
2024/02/05 12:59:54;;;;;;;3.25;1.25;;;;;;;;;;4970778;28;20053;-67
2024/02/05 13:02:21;;;;;;;5.90;1.45;;;;;;;;;;4966522;28;20514;-64
2024/02/05 13:04:47;;;;;;;2.30;1.17;;;;;;;;;;4968684;28;20034;-65
2024/02/05 13:07:19;;;;;;;6.35;2.95;;;;;;;;;;4969399;28;20043;-65
2024/02/05 13:09:49;;;;;;;5.03;1.20;;;;;;;;;;4969127;28;20073;-64
2024/02/05 13:12:15;;;;;;;;;;;;;;;;;;4984077;28;20054;-64
2024/02/05 13:14:41;;;;;;;2.53;1.10;;;;;;;;;;4969873;28;19920;-65
2024/02/05 13:17:07;;;;;;;3.70;1.10;;;;;;;;;;4971636;28;20035;-65
2024/02/05 13:19:33;;;;;;;6.18;1.60;;;;;;;;;;4974760;28;20047;-64
2024/02/05 13:22:00;;;;;;;3.78;1.70;;;;;;;;;;4974628;28;20035;-68
2024/02/05 13:24:26;;;;;;;4.47;1.80;;;;;;;;;;4973791;28;20027;-65
2024/02/05 13:26:54;;;;;;;5.55;1.20;;;;;;;;;;4973815;28;20035;-64
2024/02/05 13:29:22;;;;;;;4.10;1.20;;;;;;;;;;4973884;28;20051;-63
2024/02/05 13:31:48;;;;;;;4.05;1.75;;;;;;;;;;4972889;28;20044;-64
2024/02/05 13:34:16;;;;;;;2.72;1.30;;;;;;;;;;4970662;28;20058;-64
2024/02/05 13:36:42;;;;;;;3.72;1.38;;;;;;;;;;4972372;28;20046;-63
2024/02/05 13:39:08;;;;;;;2.25;0.85;;;;;;;;;;4973368;28;20042;-64
2024/02/05 13:41:37;;;;;;;3.65;1.15;;;;;;;;;;4970068;28;20419;-65
2024/02/05 13:44:08;;;;;;;3.45;1.30;;;;;;;;;;4973469;28;20047;-63
2024/02/05 13:46:36;;;;;;;5.20;1.33;;;;;;;;;;4963884;28;20054;-66
2024/02/05 13:49:02;;;;;;;5.22;1.42;;;;;;;;;;4969765;28;20043;-66
2024/02/05 13:51:34;;;;;;;4.15;1.55;;;;;;;;;;4965332;28;20042;-65
2024/02/05 13:54:00;;;;;;;5.97;1.58;;;;;;;;;;4961382;28;20046;-66
2024/02/05 13:56:27;;;;;;;4.55;1.20;;;;;;;;;;4984072;28;20502;-67
2024/02/05 13:58:53;;;;;;;4.68;1.30;;;;;;;;;;4968196;28;20042;-65
2024/02/05 14:01:22;;;;;;;5.55;1.40;;;;;;;;;;4966870;28;20046;-64
2024/02/05 14:03:48;;;;;;;4.45;1.90;;;;;;;;;;4966279;28;20030;-65
2024/02/05 14:06:14;;;;;;;5.68;1.50;;;;;;;;;;4964361;28;20041;-64
2024/02/05 14:08:40;;;;;;;4.75;1.40;;;;;;;;;;4962487;28;20127;-64
2024/02/05 14:11:06;;;;;;;4.25;1.10;;;;;;;;;;4970081;28;20031;-65
2024/02/05 14:13:32;;;;;;;3.25;1.20;;;;;;;;;;4971485;28;20049;-65
2024/02/05 14:15:58;;;;;;;4.68;1.52;;;;;;;;;;4967193;28;20046;-65
2024/02/05 14:18:25;;;;;;;3.40;1.25;;;;;;;;;;4968368;28;20430;-65
2024/02/05 14:20:51;;;;;;;4.72;1.23;;;;;;;;;;4966977;28;20050;-62
2024/02/05 14:23:17;;;;;;;4.85;1.52;;;;;;;;;;4965937;28;20034;-63
2024/02/05 14:25:43;;;;;;;4.70;1.63;;;;;;;;;;4971161;28;20030;-63
2024/02/05 14:28:09;;;;;;;9.50;3.60;;;;;;;;;;4967052;28;20042;-63
2024/02/05 14:30:35;;;;;;;7.43;1.90;;;;;;;;;;4970344;28;20050;-64
2024/02/05 14:33:01;;;;;;;6.95;1.65;;;;;;;;;;4967763;28;20030;-65
2024/02/05 14:35:27;;;;;;;4.88;1.38;;;;;;;;;;4974182;28;20055;-65
2024/02/05 14:37:53;;;;;;;2.47;1.17;;;;;;;;;;4970802;28;20510;-65
2024/02/05 14:40:19;;;;;;;4.53;1.10;;;;;;;;;;4966781;28;20033;-66
2024/02/05 14:42:45;;;;;;;3.47;1.33;;;;;;;;;;4967283;28;20039;-64